createdAt,value
2019-02-22T00:00:38.238Z,8.07
2019-02-22T00:03:04.862Z,9.07
2019-02-22T00:05:31.411Z,8.77
2019-02-22T00:07:57.916Z,7.83
2019-02-22T00:10:24.338Z,7.47
2019-02-22T00:12:50.771Z,7.77
2019-02-22T00:15:17.326Z,7.03
2019-02-22T00:17:43.750Z,8.13
2019-02-22T00:20:10.186Z,7.60
2019-02-22T00:22:36.613Z,6.93
2019-02-22T00:25:04.268Z,6.37
2019-02-22T00:27:30.794Z,7.67
2019-02-22T00:29:57.251Z,7.23
2019-02-22T00:32:23.678Z,7.33
2019-02-22T00:34:50.200Z,7.87
2019-02-22T00:37:16.661Z,8.13
2019-02-22T00:39:43.069Z,8.70
2019-02-22T00:42:09.493Z,7.67
2019-02-22T00:44:35.966Z,7.03
2019-02-22T00:47:02.391Z,8.43
2019-02-22T00:49:28.818Z,7.97
2019-02-22T00:51:55.284Z,8.57
2019-02-22T00:54:21.697Z,7.40
2019-02-22T00:56:48.113Z,7.80
2019-02-22T00:59:14.695Z,6.97
2019-02-22T01:01:41.116Z,7.90
2019-02-22T01:04:07.685Z,7.20
2019-02-22T01:06:34.579Z,7.27
2019-02-22T01:09:01.459Z,8.13
2019-02-22T01:11:28.039Z,8.07
2019-02-22T01:13:54.769Z,7.73
2019-02-22T01:16:21.239Z,7.73
2019-02-22T01:18:47.661Z,8.63
2019-02-22T01:21:14.083Z,7.57
2019-02-22T01:23:40.511Z,8.03
2019-02-22T01:26:06.983Z,8.13
2019-02-22T01:28:33.424Z,8.23
2019-02-22T01:30:59.883Z,7.90
2019-02-22T01:33:26.310Z,8.73
2019-02-22T01:35:52.811Z,8.33
2019-02-22T01:38:19.350Z,8.80
2019-02-22T01:40:45.770Z,7.93
2019-02-22T01:43:12.186Z,7.77
2019-02-22T01:45:38.646Z,7.30
2019-02-22T01:48:05.062Z,7.43
2019-02-22T01:50:31.485Z,7.57
2019-02-22T01:52:57.990Z,7.33
2019-02-22T01:55:24.493Z,7.33
2019-02-22T01:57:50.917Z,7.10
2019-02-22T02:00:17.434Z,7.83
2019-02-22T02:02:44.015Z,8.47
2019-02-22T02:05:10.527Z,6.87
2019-02-22T02:07:37.051Z,6.53
2019-02-22T02:10:05.013Z,6.37
2019-02-22T02:12:31.442Z,6.27
2019-02-22T02:14:57.904Z,5.50
2019-02-22T02:17:24.323Z,5.83
2019-02-22T02:19:50.748Z,6.13
2019-02-22T02:22:17.170Z,5.67
2019-02-22T02:24:43.631Z,6.20
2019-02-22T02:27:10.048Z,6.17
2019-02-22T02:29:36.467Z,6.83
2019-02-22T02:32:03.001Z,5.80
2019-02-22T02:34:29.496Z,5.83
2019-02-22T02:36:55.906Z,6.73
2019-02-22T02:39:22.380Z,6.37
2019-02-22T02:41:48.855Z,6.73
2019-02-22T02:44:15.284Z,4.93
2019-02-22T02:46:41.741Z,5.73
2019-02-22T02:49:08.160Z,4.73
2019-02-22T02:51:34.803Z,6.30
2019-02-22T02:54:01.308Z,6.63
2019-02-22T02:56:27.777Z,5.97
2019-02-22T02:58:54.203Z,6.67
2019-02-22T03:01:20.618Z,5.53
2019-02-22T03:03:47.040Z,6.07
2019-02-22T03:06:24.563Z,6.33
2019-02-22T03:08:50.985Z,6.50
2019-02-22T03:11:21.144Z,5.93
2019-02-22T03:13:45.851Z,6.60
2019-02-22T03:16:12.358Z,6.50
2019-02-22T03:18:38.790Z,6.00
2019-02-22T03:21:05.208Z,5.53
2019-02-22T03:23:31.638Z,6.27
2019-02-22T03:25:58.092Z,7.07
2019-02-22T03:28:24.525Z,7.23
2019-02-22T03:30:50.965Z,6.60
2019-02-22T03:33:17.407Z,5.80
2019-02-22T03:35:44.387Z,6.07
2019-02-22T03:38:10.819Z,6.17
2019-02-22T03:40:37.349Z,6.50
2019-02-22T03:43:03.766Z,5.93
2019-02-22T03:45:30.276Z,6.23
2019-02-22T03:47:56.703Z,5.83
2019-02-22T03:50:23.115Z,7.07
2019-02-22T03:52:54.107Z,6.27
2019-02-22T03:55:20.591Z,6.13
2019-02-22T03:57:47.117Z,5.80
2019-02-22T04:00:13.552Z,6.00
2019-02-22T04:02:39.980Z,6.77
2019-02-22T04:05:07.063Z,5.83
2019-02-22T04:07:33.658Z,6.13
2019-02-22T04:10:00.296Z,5.67
2019-02-22T04:12:26.703Z,6.33
2019-02-22T04:14:53.318Z,5.97
2019-02-22T04:17:19.747Z,6.40
2019-02-22T04:19:46.179Z,5.87
2019-02-22T04:22:12.603Z,6.20
2019-02-22T04:24:39.050Z,5.57
2019-02-22T04:27:05.481Z,6.10
2019-02-22T04:29:31.912Z,6.50
2019-02-22T04:31:58.346Z,6.27
2019-02-22T04:34:24.782Z,5.20
2019-02-22T04:36:51.215Z,6.60
2019-02-22T04:39:17.723Z,5.37
2019-02-22T04:41:44.252Z,5.83
2019-02-22T04:44:10.749Z,6.17
2019-02-22T04:46:37.259Z,7.20
2019-02-22T04:49:03.688Z,6.17
2019-02-22T04:51:30.126Z,5.67
2019-02-22T04:53:56.537Z,6.60
2019-02-22T04:56:23.072Z,6.40
2019-02-22T04:58:49.505Z,6.07
2019-02-22T05:01:15.940Z,5.93
2019-02-22T05:03:42.368Z,5.30
2019-02-22T05:06:08.939Z,5.90
2019-02-22T05:08:35.364Z,6.10
2019-02-22T05:11:01.819Z,6.50
2019-02-22T05:13:28.249Z,6.23
2019-02-22T05:15:54.773Z,6.57
2019-02-22T05:18:21.199Z,5.43
2019-02-22T05:20:47.631Z,6.07
2019-02-22T05:23:14.750Z,5.50
2019-02-22T05:25:41.328Z,6.17
2019-02-22T05:28:07.760Z,4.80
2019-02-22T05:30:36.453Z,5.97
2019-02-22T05:33:02.618Z,5.23
2019-02-22T05:35:29.106Z,5.70
2019-02-22T05:37:55.542Z,5.73
2019-02-22T05:40:22.044Z,5.40
2019-02-22T05:42:48.556Z,6.00
2019-02-22T05:45:15.125Z,5.93
2019-02-22T05:47:41.550Z,7.30
2019-02-22T05:50:07.979Z,5.73
2019-02-22T05:52:34.397Z,5.93
2019-02-22T05:55:00.882Z,6.27
2019-02-22T05:57:27.343Z,6.90
2019-02-22T05:59:53.774Z,6.03
2019-02-22T06:02:20.219Z,5.93
2019-02-22T06:04:46.721Z,6.37
2019-02-22T06:07:14.526Z,6.83
2019-02-22T06:09:42.515Z,5.17
2019-02-22T06:12:09.054Z,5.40
2019-02-22T06:14:35.535Z,5.50
2019-02-22T06:17:02.003Z,5.10
2019-02-22T06:19:29.825Z,6.10
2019-02-22T06:21:56.259Z,4.97
2019-02-22T06:24:22.690Z,6.33
2019-02-22T06:26:49.120Z,6.13
2019-02-22T06:29:15.642Z,5.00
2019-02-22T06:31:42.079Z,5.63
2019-02-22T06:34:08.503Z,5.60
2019-02-22T06:36:34.959Z,5.13
2019-02-22T06:39:01.388Z,5.47
2019-02-22T06:41:27.917Z,7.50
2019-02-22T06:43:54.459Z,6.30
2019-02-22T06:46:20.895Z,6.33
2019-02-22T06:48:47.327Z,5.80
2019-02-22T06:51:13.755Z,5.43
2019-02-22T06:53:40.184Z,5.77
2019-02-22T06:56:06.642Z,5.40
2019-02-22T06:58:33.153Z,6.93
2019-02-22T07:00:59.586Z,5.57
2019-02-22T07:03:26.020Z,5.87
2019-02-22T07:05:52.475Z,6.37
2019-02-22T07:08:18.909Z,7.67
2019-02-22T07:11:03.590Z,6.87
2019-02-22T07:13:30.023Z,7.17
2019-02-22T07:15:56.994Z,6.10
2019-02-22T07:18:23.425Z,6.53
2019-02-22T07:20:49.846Z,5.57
2019-02-22T07:23:16.274Z,5.17
2019-02-22T07:25:42.786Z,6.53
2019-02-22T07:28:09.222Z,6.93
2019-02-22T07:30:35.664Z,6.87
2019-02-22T07:33:02.219Z,5.40
2019-02-22T07:35:28.730Z,6.23
2019-02-22T07:37:55.155Z,6.00
2019-02-22T07:40:21.689Z,5.83
2019-02-22T07:42:48.246Z,6.40
2019-02-22T07:45:14.771Z,5.63
2019-02-22T07:47:41.240Z,6.23
2019-02-22T07:50:09.076Z,6.77
2019-02-22T07:52:35.531Z,7.03
2019-02-22T07:55:02.036Z,7.13
2019-02-22T07:57:28.570Z,5.77
2019-02-22T07:59:55.027Z,6.50
2019-02-22T08:02:21.457Z,7.07
2019-02-22T08:04:47.965Z,6.20
2019-02-22T08:07:14.396Z,6.47
2019-02-22T08:09:40.827Z,6.57
2019-02-22T08:12:07.259Z,6.67
2019-02-22T08:14:33.712Z,6.07
2019-02-22T08:17:00.501Z,6.60
2019-02-22T08:19:26.979Z,6.87
2019-02-22T08:21:53.405Z,6.17
2019-02-22T08:24:19.833Z,6.67
2019-02-22T08:26:46.268Z,6.20
2019-02-22T08:29:12.715Z,7.80
2019-02-22T08:31:39.177Z,7.00
2019-02-22T08:34:05.590Z,7.70
2019-02-22T08:36:32.193Z,7.70
2019-02-22T08:38:58.661Z,7.03
2019-02-22T08:41:25.144Z,7.43
2019-02-22T08:43:51.678Z,7.10
2019-02-22T08:46:18.195Z,8.33
2019-02-22T08:48:44.692Z,8.10
2019-02-22T08:51:11.223Z,10.30
2019-02-22T08:53:37.655Z,8.87
2019-02-22T08:56:04.103Z,9.50
2019-02-22T08:58:30.550Z,12.50
2019-02-22T09:00:57.098Z,12.90
2019-02-22T09:03:23.560Z,9.43
2019-02-22T09:05:50.054Z,10.27
2019-02-22T09:08:16.471Z,11.63
2019-02-22T09:10:42.999Z,11.30
2019-02-22T09:13:09.470Z,11.87
2019-02-22T09:15:36.075Z,10.20
2019-02-22T09:18:02.505Z,10.97
2019-02-22T09:20:29.385Z,10.83
2019-02-22T09:22:55.827Z,10.57
2019-02-22T09:25:22.326Z,10.60
2019-02-22T09:27:48.778Z,9.80
2019-02-22T09:30:15.405Z,9.53
2019-02-22T09:32:41.848Z,9.80
2019-02-22T09:35:09.876Z,8.43
2019-02-22T09:37:36.459Z,9.50
2019-02-22T09:40:05.483Z,9.40
2019-02-22T09:42:32.008Z,9.77
2019-02-22T09:44:58.742Z,9.77
2019-02-22T09:47:25.172Z,9.93
2019-02-22T09:49:51.601Z,10.10
2019-02-22T09:52:18.084Z,10.27
2019-02-22T09:54:44.556Z,10.07
2019-02-22T09:57:11.008Z,9.13
2019-02-22T09:59:37.493Z,11.17
2019-02-22T10:02:03.951Z,10.03
2019-02-22T10:04:30.379Z,11.17
2019-02-22T10:06:56.800Z,8.73
2019-02-22T10:09:23.227Z,7.10
2019-02-22T10:11:49.646Z,7.40
2019-02-22T10:14:16.064Z,8.57
2019-02-22T10:16:42.672Z,7.20
2019-02-22T10:19:09.102Z,6.20
2019-02-22T10:21:35.529Z,6.63
2019-02-22T10:24:01.986Z,5.63
2019-02-22T10:26:28.585Z,5.90
2019-02-22T10:28:54.998Z,5.17
2019-02-22T10:31:21.445Z,5.93
2019-02-22T10:33:47.857Z,5.07
2019-02-22T10:36:14.337Z,4.50
2019-02-22T10:38:40.765Z,4.77
2019-02-22T10:41:07.207Z,5.97
2019-02-22T10:43:33.737Z,5.47
2019-02-22T10:46:00.289Z,5.13
2019-02-22T10:48:26.731Z,4.87
2019-02-22T10:50:53.157Z,5.10
2019-02-22T10:53:19.659Z,5.53
2019-02-22T10:55:46.109Z,5.33
2019-02-22T10:58:12.535Z,6.33
2019-02-22T11:00:38.961Z,6.00
2019-02-22T11:03:05.430Z,6.50
2019-02-22T11:05:31.940Z,5.50
2019-02-22T11:07:58.357Z,5.70
2019-02-22T11:10:24.792Z,6.07
2019-02-22T11:12:51.215Z,6.17
2019-02-22T11:15:17.674Z,5.57
2019-02-22T11:17:46.392Z,6.73
2019-02-22T11:20:12.918Z,5.93
2019-02-22T11:22:39.345Z,6.77
2019-02-22T11:25:12.961Z,6.43
2019-02-22T11:27:39.376Z,6.53
2019-02-22T11:30:09.406Z,6.70
2019-02-22T11:32:35.817Z,5.73
2019-02-22T11:35:02.779Z,6.43
2019-02-22T11:37:32.369Z,5.60
2019-02-22T11:39:58.793Z,5.23
2019-02-22T11:42:25.372Z,5.63
2019-02-22T11:44:51.891Z,5.17
2019-02-22T11:47:18.312Z,4.87
2019-02-22T11:49:44.730Z,4.87
2019-02-22T11:52:11.170Z,5.90
2019-02-22T11:54:37.608Z,5.50
2019-02-22T11:57:04.636Z,4.43
2019-02-22T11:59:31.067Z,5.00
2019-02-22T12:01:57.507Z,4.53
2019-02-22T12:04:24.141Z,4.83
2019-02-22T12:06:50.675Z,4.83
2019-02-22T12:09:17.114Z,4.10
2019-02-22T12:11:43.544Z,4.03
2019-02-22T12:14:09.977Z,4.23
2019-02-22T12:16:36.430Z,3.53
2019-02-22T12:19:03.158Z,3.50
2019-02-22T12:21:29.597Z,3.27
2019-02-22T12:23:56.021Z,2.80
2019-02-22T12:26:22.476Z,2.90
2019-02-22T12:28:48.979Z,2.97
2019-02-22T12:31:15.404Z,3.00
2019-02-22T12:33:41.933Z,3.17
2019-02-22T12:36:09.580Z,2.80
2019-02-22T12:38:36.361Z,2.60
2019-02-22T12:41:02.779Z,3.20
2019-02-22T12:43:29.296Z,2.87
2019-02-22T12:45:55.910Z,2.47
2019-02-22T12:48:22.390Z,2.93
2019-02-22T12:50:48.827Z,3.23
2019-02-22T12:53:15.236Z,2.80
2019-02-22T12:55:41.729Z,2.80
2019-02-22T12:58:08.156Z,2.63
2019-02-22T13:00:34.675Z,2.87
2019-02-22T13:03:02.351Z,3.20
2019-02-22T13:05:29.796Z,2.97
2019-02-22T13:07:56.214Z,3.17
2019-02-22T13:10:22.734Z,3.43
2019-02-22T13:12:49.146Z,3.07
2019-02-22T13:15:15.653Z,2.90
2019-02-22T13:17:42.181Z,3.03
2019-02-22T13:20:08.926Z,3.20
2019-02-22T13:22:35.363Z,3.20
2019-02-22T13:25:01.978Z,3.10
2019-02-22T13:27:28.416Z,3.70
2019-02-22T13:29:54.845Z,3.73
2019-02-22T13:32:21.383Z,3.87
2019-02-22T13:34:48.099Z,3.40
2019-02-22T13:37:14.556Z,3.03
2019-02-22T13:39:40.992Z,3.17
2019-02-22T13:42:07.418Z,2.93
2019-02-22T13:44:34.680Z,2.90
2019-02-22T13:47:01.204Z,2.03
2019-02-22T13:49:27.625Z,2.87
2019-02-22T13:51:54.042Z,2.67
2019-02-22T13:54:20.516Z,2.33
2019-02-22T13:56:47.027Z,1.93
2019-02-22T13:59:13.453Z,2.10
2019-02-22T14:01:40.031Z,1.92
2019-02-22T14:04:06.461Z,1.50
2019-02-22T14:06:32.997Z,2.17
2019-02-22T14:08:59.421Z,1.33
2019-02-22T14:11:27.288Z,1.70
2019-02-22T14:13:53.979Z,1.40
2019-02-22T14:16:20.487Z,1.87
2019-02-22T14:18:47.072Z,1.30
2019-02-22T14:21:13.529Z,2.07
2019-02-22T14:23:49.037Z,1.73
2019-02-22T14:26:16.521Z,2.07
2019-02-22T14:28:44.709Z,2.00
2019-02-22T14:31:16.940Z,2.23
2019-02-22T14:33:48.969Z,1.70
2019-02-22T14:36:21.073Z,1.77
2019-02-22T14:41:46.050Z,2.03
2019-02-22T14:47:08.284Z,2.33
2019-02-22T14:49:39.143Z,2.07
2019-02-22T14:52:12.665Z,1.73
2019-02-22T14:54:43.657Z,1.80
2019-02-22T14:57:16.545Z,2.30
2019-02-22T14:59:45.876Z,1.70
2019-02-22T15:02:16.180Z,1.70
2019-02-22T15:04:43.376Z,1.87
2019-02-22T15:07:16.677Z,1.33
2019-02-22T15:09:45.895Z,1.70
2019-02-22T15:12:17.996Z,1.63
2019-02-22T15:14:46.629Z,1.90
2019-02-22T15:17:23.196Z,1.90
2019-02-22T15:19:51.501Z,1.70
2019-02-22T15:22:20.226Z,1.90
2019-02-22T15:24:48.625Z,2.10
2019-02-22T15:27:16.893Z,1.90
2019-02-22T15:29:56.913Z,2.00
2019-02-22T15:32:27.118Z,1.70
2019-02-22T15:34:57.933Z,2.23
2019-02-22T15:37:34.747Z,2.55
2019-02-22T15:40:06.263Z,1.80
2019-02-22T15:42:35.925Z,2.17
2019-02-22T15:45:07.461Z,2.40
2019-02-22T15:47:41.262Z,2.70
2019-02-22T15:50:16.045Z,2.65
2019-02-22T15:52:42.961Z,2.10
2019-02-22T15:55:10.725Z,2.30
2019-02-22T15:57:37.159Z,2.30
2019-02-22T16:00:10.206Z,2.13
2019-02-22T16:02:36.684Z,2.70
2019-02-22T16:05:06.118Z,2.80
2019-02-22T16:07:43.954Z,2.22
2019-02-22T16:10:01.148Z,2.53
2019-02-22T16:12:27.569Z,2.17
2019-02-22T16:14:54.177Z,2.40
2019-02-22T16:17:20.817Z,2.50
2019-02-22T16:19:47.249Z,3.05
2019-02-22T16:22:13.672Z,2.60
2019-02-22T16:24:40.136Z,2.63
2019-02-22T16:27:06.554Z,3.12
2019-02-22T16:29:33.041Z,2.92
2019-02-22T16:31:59.716Z,3.03
2019-02-22T16:34:26.181Z,2.93
2019-02-22T16:36:52.973Z,3.07
2019-02-22T16:39:19.393Z,2.77
2019-02-22T16:41:45.819Z,3.00
2019-02-22T16:44:12.329Z,3.73
2019-02-22T16:46:38.888Z,3.23
2019-02-22T16:49:05.297Z,3.83
2019-02-22T16:51:31.721Z,2.97
2019-02-22T16:53:58.150Z,3.03
2019-02-22T16:56:24.597Z,3.60
2019-02-22T16:58:51.044Z,3.37
2019-02-22T17:01:17.471Z,3.70
2019-02-22T17:03:43.923Z,3.37
2019-02-22T17:06:10.458Z,3.83
2019-02-22T17:08:37.006Z,4.10
2019-02-22T17:11:03.431Z,4.00
2019-02-22T17:13:29.863Z,4.00
2019-02-22T17:15:56.373Z,4.17
2019-02-22T17:18:22.812Z,4.10
2019-02-22T17:20:49.236Z,4.27
2019-02-22T17:23:15.663Z,4.77
2019-02-22T17:25:42.113Z,4.50
2019-02-22T17:28:08.537Z,5.33
2019-02-22T17:30:34.960Z,5.10
2019-02-22T17:33:01.383Z,5.00
2019-02-22T17:35:27.866Z,4.80
2019-02-22T17:37:54.360Z,4.60
2019-02-22T17:40:23.191Z,4.93
2019-02-22T17:42:49.626Z,5.13
2019-02-22T17:45:16.162Z,5.10
2019-02-22T17:47:42.678Z,5.47
2019-02-22T17:50:09.394Z,5.50
2019-02-22T17:52:35.839Z,6.00
2019-02-22T17:55:02.281Z,6.30
2019-02-22T17:57:28.698Z,6.10
2019-02-22T17:59:55.127Z,6.67
2019-02-22T18:02:21.557Z,6.57
2019-02-22T18:04:48.289Z,6.30
2019-02-22T18:07:14.842Z,6.37
2019-02-22T18:09:41.427Z,6.23
2019-02-22T18:12:07.880Z,6.20
2019-02-22T18:14:34.364Z,7.60
2019-02-22T18:17:08.003Z,7.13
2019-02-22T18:19:29.106Z,7.63
2019-02-22T18:21:55.551Z,7.63
2019-02-22T18:24:21.983Z,7.73
2019-02-22T18:26:48.407Z,8.27
2019-02-22T18:29:14.867Z,8.13
2019-02-22T18:31:42.395Z,7.97
2019-02-22T18:34:08.931Z,8.03
2019-02-22T18:36:36.470Z,8.53
2019-02-22T18:39:04.595Z,8.60
2019-02-22T18:41:31.164Z,8.27
2019-02-22T18:43:57.593Z,8.03
2019-02-22T18:46:24.124Z,8.90
2019-02-22T18:48:50.688Z,8.80
2019-02-22T18:51:17.224Z,7.73
2019-02-22T18:53:43.670Z,9.10
2019-02-22T18:56:10.188Z,9.23
2019-02-22T18:58:36.627Z,9.73
2019-02-22T19:01:03.067Z,10.07
2019-02-22T19:03:29.650Z,9.97
2019-02-22T19:05:56.137Z,9.87
2019-02-22T19:08:32.137Z,10.63
2019-02-22T19:10:50.979Z,11.17
2019-02-22T19:13:17.833Z,10.90
2019-02-22T19:15:44.320Z,11.03
2019-02-22T19:18:10.750Z,11.03
2019-02-22T19:20:37.182Z,12.07
2019-02-22T19:23:03.613Z,11.40
2019-02-22T19:25:30.154Z,11.10
2019-02-22T19:27:56.588Z,11.53
2019-02-22T19:30:23.563Z,10.37
2019-02-22T19:32:50.085Z,11.27
2019-02-22T19:35:16.629Z,11.33
2019-02-22T19:37:43.139Z,11.90
2019-02-22T19:40:15.117Z,12.17
2019-02-22T19:42:41.540Z,12.10
2019-02-22T19:45:09.842Z,11.27
2019-02-22T19:47:41.888Z,11.70
2019-02-22T19:50:08.060Z,11.47
2019-02-22T19:52:34.474Z,12.53
2019-02-22T19:55:00.996Z,12.00
2019-02-22T19:57:28.756Z,12.37
2019-02-22T19:59:55.179Z,11.60
2019-02-22T20:02:21.615Z,11.93
2019-02-22T20:04:48.146Z,11.70
2019-02-22T20:07:14.563Z,11.70
2019-02-22T20:09:41.005Z,12.17
2019-02-22T20:12:07.512Z,11.67
2019-02-22T20:14:33.990Z,10.73
2019-02-22T20:17:00.457Z,11.83
2019-02-22T20:19:27.960Z,10.73
2019-02-22T20:21:54.417Z,11.07
2019-02-22T20:24:20.907Z,11.10
2019-02-22T20:26:48.421Z,10.73
2019-02-22T20:29:14.938Z,11.03
2019-02-22T20:31:41.726Z,12.00
2019-02-22T20:34:08.237Z,12.07
2019-02-22T20:36:34.752Z,11.47
2019-02-22T20:39:01.301Z,11.60
2019-02-22T20:41:27.726Z,12.07
2019-02-22T20:43:54.149Z,11.60
2019-02-22T20:46:21.354Z,11.90
2019-02-22T20:48:48.064Z,12.53
2019-02-22T20:51:14.604Z,12.03
2019-02-22T20:53:41.154Z,12.93
2019-02-22T20:56:07.662Z,12.63
2019-02-22T20:58:34.091Z,13.10
2019-02-22T21:01:00.556Z,12.03
2019-02-22T21:03:26.994Z,12.43
2019-02-22T21:05:53.491Z,12.43
2019-02-22T21:08:20.040Z,13.30
2019-02-22T21:10:46.466Z,13.50
2019-02-22T21:13:13.036Z,13.50
2019-02-22T21:15:39.539Z,13.27
2019-02-22T21:18:15.935Z,13.27
2019-02-22T21:20:34.369Z,13.43
2019-02-22T21:23:00.947Z,13.00
2019-02-22T21:25:27.764Z,13.50
2019-02-22T21:27:55.897Z,13.17
2019-02-22T21:30:22.324Z,13.10
2019-02-22T21:32:48.827Z,14.33
2019-02-22T21:35:15.872Z,13.10
2019-02-22T21:37:43.012Z,13.37
2019-02-22T21:40:12.697Z,13.77
2019-02-22T21:42:39.303Z,13.40
2019-02-22T21:45:15.282Z,12.73
2019-02-22T21:47:53.708Z,13.63
2019-02-22T21:50:11.713Z,13.73
2019-02-22T21:52:38.134Z,13.40
2019-02-22T21:55:07.099Z,13.70
2019-02-22T21:57:33.521Z,14.07
2019-02-22T21:59:59.944Z,13.50
2019-02-22T22:02:26.434Z,14.30
2019-02-22T22:04:52.982Z,14.27
2019-02-22T22:07:19.432Z,13.53
2019-02-22T22:09:45.850Z,14.47
2019-02-22T22:12:12.271Z,13.67
2019-02-22T22:14:38.800Z,14.00
2019-02-22T22:17:05.231Z,15.07
2019-02-22T22:19:31.730Z,13.17
2019-02-22T22:21:58.154Z,14.20
2019-02-22T22:24:24.661Z,14.90
2019-02-22T22:26:51.088Z,15.20
2019-02-22T22:29:17.513Z,14.53
2019-02-22T22:31:43.948Z,14.40
2019-02-22T22:34:10.465Z,15.67
2019-02-22T22:36:37.045Z,15.73
2019-02-22T22:39:04.371Z,15.27
2019-02-22T22:41:30.816Z,16.07
2019-02-22T22:43:57.240Z,15.30
2019-02-22T22:46:23.690Z,16.07
2019-02-22T22:48:50.918Z,16.27
2019-02-22T22:51:17.514Z,16.13
2019-02-22T22:53:43.961Z,15.37
2019-02-22T22:56:10.447Z,17.03
2019-02-22T22:58:36.880Z,17.23
2019-02-22T23:01:07.780Z,16.93
2019-02-22T23:03:34.601Z,16.97
2019-02-22T23:06:01.092Z,18.63
2019-02-22T23:08:28.125Z,17.13
2019-02-22T23:10:54.648Z,17.90
2019-02-22T23:13:21.162Z,18.10
2019-02-22T23:15:47.725Z,17.77
2019-02-22T23:18:14.147Z,16.93
2019-02-22T23:20:40.666Z,18.83
2019-02-22T23:23:07.347Z,18.73
2019-02-22T23:25:33.786Z,19.03
2019-02-22T23:28:00.209Z,18.53
2019-02-22T23:30:26.625Z,17.63
2019-02-22T23:32:53.152Z,20.33
2019-02-22T23:35:19.744Z,19.70
2019-02-22T23:37:46.166Z,18.80
2019-02-22T23:40:12.785Z,19.37
2019-02-22T23:42:39.225Z,18.73
2019-02-22T23:45:06.468Z,20.50
2019-02-22T23:47:32.940Z,20.27
2019-02-22T23:49:59.422Z,19.93
2019-02-22T23:52:25.843Z,20.77
2019-02-22T23:54:52.367Z,19.30
2019-02-22T23:57:18.788Z,19.97
2019-02-22T23:59:45.205Z,20.20
